This is the latest recevied weather packets stored in our database for station/object CX2SA-13. If no packets are shown the sender has not sent any weather packets the latest 10 day(s).
| Time | Temp. | Humidity | Pressure | Rain* | Wind** | Luminosity | Snow |
|---|---|---|---|---|---|---|---|
| 1777912185 | 23.89° C | 59% | 1009.8 hPa | 0 mm | - | - | - |
| 1777911286 | 25° C | 56% | 1010.1 hPa | 0 mm | - | - | - |
| 1777910384 | 24.44° C | 57% | 1010.1 hPa | 0 mm | - | - | - |
| 1777909485 | 23.33° C | 57% | 1010.5 hPa | 0 mm | - | - | - |
| 1777908584 | 22.22° C | 59% | 1011.1 hPa | 0 mm | - | - | - |
| 1777907685 | 21.67° C | 61% | 1011.5 hPa | 0 mm | - | - | - |
| 1777906785 | 21.11° C | 63% | 1011.5 hPa | 0 mm | - | - | - |
| 1777905884 | 20° C | 65% | 1011.8 hPa | 0 mm | - | - | - |
| 1777904985 | 18.89° C | 68% | 1011.8 hPa | 0 mm | - | - | - |
| 1777904086 | 19.44° C | 66% | 1012.1 hPa | 0 mm | - | - | - |
| 1777903184 | 18.89° C | 66% | 1012.1 hPa | 0 mm | - | - | - |
| 1777902285 | 18.33° C | 68% | 1012.1 hPa | 0 mm | - | - | - |
| 1777901384 | 17.22° C | 69% | 1012.8 hPa | 0 mm | - | - | - |
| 1777900484 | 17.22° C | 69% | 1012.5 hPa | 0 mm | - | - | - |
| 1777899585 | 16.11° C | 72% | 1012.5 hPa | 0 mm | - | - | - |
| 1777898684 | 15.56° C | 74% | 1012.1 hPa | 0 mm | - | - | - |
| 1777897785 | 13.89° C | 77% | 1011.8 hPa | 0 mm | - | - | - |
| 1777896885 | 13.33° C | 77% | 1012.1 hPa | 0 mm | - | - | - |
| 1777895984 | 12.78° C | 78% | 1012.1 hPa | 0 mm | - | - | - |
| 1777895085 | 11.67° C | 81% | 1011.8 hPa | 0 mm | - | - | - |
| 1777894186 | 10.56° C | 84% | 1011.8 hPa | 0 mm | - | - | - |
| 1777893284 | 9.44° C | 87% | 1011.1 hPa | 0 mm | - | - | - |
| 1777892385 | 8.89° C | 90% | 1011.5 hPa | 0 mm | - | - | - |
| 1777891484 | 7.22° C | 95% | 1011.1 hPa | 0 mm | - | - | - |
| 1777890584 | 6.67° C | 95% | 1011.5 hPa | 0 mm | - | - | - |
* Rain since midnight (hover to see other rain measurements)
** Current wind speed in m/s (hover to see current wind gust speed)